Time;durP1;ratioP1;P1;durP2;ratioP2;P2;SDS_P1;SDS_P2;PMS_P1;PMS_P2;Temp;Humidity;BMP_temperature;BMP_pressure;BME280_temperature;BME280_humidity;BME280_pressure;Samples;Min_cycle;Max_cycle;Signal;HPM_P1;HPM_P2
2024/01/30 00:01:11;;;;;;;;;;;;;;;13.97;96.57;101681.56;7348455;19;19911;-68
2024/01/30 00:03:38;;;;;;;;;;;;;;;13.91;97.18;101681.38;7341210;19;19918;-69
2024/01/30 00:06:07;;;;;;;;;;;;;;;13.98;97.20;101677.13;7346649;19;19931;-68
2024/01/30 00:08:34;;;;;;;;;;;;;;;13.99;97.58;101674.31;7348087;19;21630;-67
2024/01/30 00:11:04;;;;;;;;;;;;;;;14.01;98.13;101667.06;7344251;19;19922;-67
2024/01/30 00:13:31;;;;;;;;;;;;;;;13.98;97.60;101671.81;7343765;19;19915;-67
2024/01/30 00:15:58;;;;;;;;;;;;;;;13.99;97.81;101671.69;7349859;19;19914;-68
2024/01/30 00:18:25;;;;;;;;;;;;;;;14.00;97.83;101670.69;7345685;19;19922;-68
2024/01/30 00:20:52;;;;;;;;;;;;;;;14.02;97.79;101659.94;7341372;19;20684;-69
2024/01/30 00:23:18;;;;;;;;;;;;;;;13.98;97.85;101662.06;7347606;19;19914;-66
2024/01/30 00:25:49;;;;;;;;;;;;;;;14.05;97.97;101663.13;7344466;19;19919;-67
2024/01/30 00:28:18;;;;;;;;;;;;;;;14.04;97.82;101665.91;7342484;19;19941;-66
2024/01/30 00:30:45;;;;;;;;;;;;;;;14.06;97.49;101651.56;7338354;19;19923;-68
2024/01/30 00:33:12;;;;;;;;;;;;;;;14.08;97.38;101661.97;7348367;19;19994;-70
2024/01/30 00:35:39;;;;;;;;;;;;;;;14.06;97.48;101664.78;7353999;19;19939;-70
2024/01/30 00:38:07;;;;;;;;;;;;;;;14.04;97.41;101666.75;7349254;19;19921;-69
2024/01/30 00:40:34;;;;;;;;;;;;;;;14.05;97.14;101662.28;7342285;19;19938;-66
2024/01/30 00:43:01;;;;;;;;;;;;;;;14.05;97.21;101659.66;7340940;19;19934;-68
2024/01/30 00:45:28;;;;;;;;;;;;;;;14.08;97.01;101662.81;7343723;19;20378;-67
2024/01/30 00:47:55;;;;;;;;;;;;;;;14.10;96.83;101665.31;7342495;19;19919;-67
2024/01/30 00:50:22;;;;;;;;;;;;;;;14.13;96.20;101664.97;7344013;19;20010;-67
2024/01/30 00:52:48;;;;;;;;;;;;;;;14.13;95.59;101663.16;7339984;19;19941;-66
2024/01/30 00:55:15;;;;;;;;;;;;;;;14.13;94.54;101672.94;7348970;19;19982;-66
2024/01/30 00:57:42;;;;;;;;;;;;;;;14.13;94.15;101673.75;7341828;19;19933;-67
2024/01/30 01:00:12;;;;;;;;;;;;;;;14.14;93.21;101669.28;7347749;19;19926;-66
2024/01/30 01:02:39;;;;;;;;;;;;;;;14.14;93.08;101666.66;7341060;19;19925;-68
2024/01/30 01:05:07;;;;;;;;;;;;;;;14.14;93.03;101659.53;7339063;19;19919;-67
2024/01/30 01:07:33;;;;;;;;;;;;;;;14.09;92.46;101655.69;7340614;19;19941;-66
2024/01/30 01:10:01;;;;;;;;;;;;;;;14.10;93.31;101644.13;7347290;19;20583;-68
2024/01/30 01:12:27;;;;;;;;;;;;;;;14.06;91.99;101646.28;7347874;19;19966;-67
2024/01/30 01:14:54;;;;;;;;;;;;;;;14.06;91.82;101629.56;7351012;19;20660;-67
2024/01/30 01:17:21;;;;;;;;;;;;;;;14.05;91.45;101641.13;7351517;19;20241;-66
2024/01/30 01:19:48;;;;;;;;;;;;;;;14.06;91.21;101635.69;7337923;19;20760;-66
2024/01/30 01:22:17;;;;;;;;;;;;;;;14.01;91.33;101621.25;7338977;19;19923;-68
2024/01/30 01:24:44;;;;;;;;;;;;;;;14.03;91.64;101630.69;7351014;19;19923;-68
2024/01/30 01:27:11;;;;;;;;;;;;;;;14.03;92.47;101635.97;7346190;19;19938;-67
2024/01/30 01:29:39;;;;;;;;;;;;;;;14.04;92.18;101621.75;7342621;19;21595;-67
2024/01/30 01:32:05;;;;;;;;;;;;;;;13.98;92.23;101611.78;7356713;19;21657;-65
2024/01/30 01:34:32;;;;;;;;;;;;;;;13.99;92.53;101600.22;7357651;19;19958;-66
2024/01/30 01:37:00;;;;;;;;;;;;;;;14.00;92.55;101623.06;7353295;19;20495;-68
2024/01/30 01:39:26;;;;;;;;;;;;;;;14.00;91.92;101619.59;7350225;19;20038;-66
2024/01/30 01:41:53;;;;;;;;;;;;;;;13.96;91.25;101640.25;7346468;19;20646;-67
2024/01/30 01:44:20;;;;;;;;;;;;;;;13.96;91.37;101644.72;7346372;19;19926;-68
2024/01/30 01:46:47;;;;;;;;;;;;;;;13.95;91.55;101638.56;7348583;19;19919;-67
2024/01/30 01:49:14;;;;;;;;;;;;;;;13.92;91.19;101638.88;7349771;19;20010;-67
2024/01/30 01:51:44;;;;;;;;;;;;;;;13.94;91.13;101654.59;7350313;19;20461;-66
2024/01/30 01:54:12;;;;;;;;;;;;;;;13.95;91.54;101646.50;7353426;19;20355;-65
2024/01/30 01:56:39;;;;;;;;;;;;;;;13.90;91.02;101646.16;7354689;19;20009;-66
2024/01/30 01:59:09;;;;;;;;;;;;;;;13.90;90.41;101643.50;7345079;19;19930;-68
2024/01/30 02:01:36;;;;;;;;;;;;;;;13.89;90.15;101647.13;7351681;19;19919;-67
2024/01/30 02:04:04;;;;;;;;;;;;;;;13.81;89.14;101646.25;7345560;19;20351;-67
2024/01/30 02:06:31;;;;;;;;;;;;;;;13.75;89.32;101642.41;7346771;19;19922;-67
2024/01/30 02:08:58;;;;;;;;;;;;;;;13.73;89.69;101664.66;7347112;19;19915;-68
2024/01/30 02:11:25;;;;;;;;;;;;;;;13.71;89.93;101664.84;7349224;19;19943;-67
2024/01/30 02:13:52;;;;;;;;;;;;;;;13.66;89.48;101664.47;7348553;19;19914;-66
2024/01/30 02:16:19;;;;;;;;;;;;;;;13.59;89.22;101669.53;7355152;19;19923;-67
2024/01/30 02:18:47;;;;;;;;;;;;;;;13.63;89.25;101668.25;7339343;19;20265;-68
2024/01/30 02:21:15;;;;;;;;;;;;;;;13.59;89.10;101661.59;7334601;19;20511;-67
2024/01/30 02:23:46;;;;;;;;;;;;;;;13.57;89.29;101654.78;7335358;19;19919;-66
2024/01/30 02:26:13;;;;;;;;;;;;;;;13.49;88.67;101641.50;7336816;19;20655;-66
2024/01/30 02:28:40;;;;;;;;;;;;;;;13.48;89.28;101638.03;7345910;19;20296;-67
2024/01/30 02:31:07;;;;;;;;;;;;;;;13.47;88.71;101651.38;7350964;19;19918;-68
2024/01/30 02:33:34;;;;;;;;;;;;;;;13.43;88.48;101650.03;7347926;19;19914;-66
2024/01/30 02:36:01;;;;;;;;;;;;;;;13.42;88.31;101648.38;7345730;19;19951;-67
2024/01/30 02:38:28;;;;;;;;;;;;;;;13.42;88.75;101654.47;7353561;19;20398;-67
2024/01/30 02:40:56;;;;;;;;;;;;;;;13.40;89.26;101658.28;7347102;19;21652;-67
2024/01/30 02:43:23;;;;;;;;;;;;;;;13.38;88.43;101665.50;7342898;19;20399;-67
2024/01/30 02:45:50;;;;;;;;;;;;;;;13.26;88.11;101659.59;7352602;19;19927;-67
2024/01/30 02:48:17;;;;;;;;;;;;;;;13.25;88.86;101660.59;7341772;19;20018;-66
2024/01/30 02:50:44;;;;;;;;;;;;;;;13.25;88.90;101655.31;7350868;19;20354;-67
2024/01/30 02:53:11;;;;;;;;;;;;;;;13.21;88.98;101646.00;7343996;19;19933;-67
2024/01/30 02:55:38;;;;;;;;;;;;;;;13.19;88.91;101645.34;7344578;19;19914;-67
2024/01/30 02:58:05;;;;;;;;;;;;;;;13.13;88.47;101664.44;7353925;19;19918;-67
2024/01/30 03:00:31;;;;;;;;;;;;;;;13.09;89.17;101673.59;7352358;19;20286;-68
2024/01/30 03:02:58;;;;;;;;;;;;;;;13.06;89.01;101679.16;7355575;19;19945;-66
2024/01/30 03:05:25;;;;;;;;;;;;;;;13.04;88.80;101671.41;7345921;19;20508;-66
2024/01/30 03:07:52;;;;;;;;;;;;;;;12.98;88.32;101666.72;7337155;19;19931;-65
2024/01/30 03:10:19;;;;;;;;;;;;;;;12.95;88.83;101672.31;7345781;19;19945;-66
2024/01/30 03:12:46;;;;;;;;;;;;;;;12.91;89.53;101672.72;7351780;19;19918;-68
2024/01/30 03:15:14;;;;;;;;;;;;;;;12.89;89.21;101667.59;7339320;19;19934;-66
2024/01/30 03:17:43;;;;;;;;;;;;;;;12.85;89.70;101679.41;7332309;19;19927;-67
2024/01/30 03:20:10;;;;;;;;;;;;;;;12.83;89.05;101674.31;7346422;19;19919;-67
2024/01/30 03:22:37;;;;;;;;;;;;;;;12.87;89.08;101680.13;7344100;19;19918;-67
2024/01/30 03:25:04;;;;;;;;;;;;;;;12.84;89.23;101678.59;7342505;19;20999;-67
2024/01/30 03:27:31;;;;;;;;;;;;;;;12.84;89.39;101678.59;7351283;19;19911;-67
2024/01/30 03:29:58;;;;;;;;;;;;;;;12.85;90.36;101674.13;7348575;19;19911;-67
2024/01/30 03:32:25;;;;;;;;;;;;;;;12.88;90.65;101688.88;7349467;19;19925;-68
2024/01/30 03:34:51;;;;;;;;;;;;;;;12.82;89.53;101680.56;7345035;19;20730;-67
2024/01/30 03:37:19;;;;;;;;;;;;;;;12.79;89.46;101672.09;7345833;19;20445;-67
2024/01/30 03:39:45;;;;;;;;;;;;;;;12.75;90.29;101676.81;7343410;19;21938;-67
2024/01/30 03:42:12;;;;;;;;;;;;;;;12.70;90.28;101681.72;7345448;19;20277;-68
2024/01/30 03:44:39;;;;;;;;;;;;;;;12.71;91.09;101695.75;7343894;19;19959;-66
2024/01/30 03:47:06;;;;;;;;;;;;;;;12.69;91.02;101688.00;7354248;19;19930;-67
2024/01/30 03:49:33;;;;;;;;;;;;;;;12.64;90.67;101690.25;7342286;19;20006;-67
2024/01/30 03:52:00;;;;;;;;;;;;;;;12.61;90.81;101690.50;7350449;19;20373;-67
2024/01/30 03:54:27;;;;;;;;;;;;;;;12.61;91.05;101702.88;7337352;19;19918;-66
2024/01/30 03:56:54;;;;;;;;;;;;;;;12.58;92.06;101705.81;7336824;19;20002;-67
2024/01/30 03:59:23;;;;;;;;;;;;;;;12.60;92.29;101699.41;7344725;19;19923;-69
2024/01/30 04:01:51;;;;;;;;;;;;;;;12.58;92.71;101700.53;7349131;19;19981;-66
2024/01/30 04:04:19;;;;;;;;;;;;;;;12.59;93.37;101696.91;7343234;19;19929;-66
2024/01/30 04:06:46;;;;;;;;;;;;;;;12.57;93.28;101698.84;7340133;19;20329;-67
2024/01/30 04:09:13;;;;;;;;;;;;;;;12.54;93.30;101693.88;7340146;19;19923;-68
2024/01/30 04:11:40;;;;;;;;;;;;;;;12.54;93.40;101694.72;7334964;19;19987;-67
2024/01/30 04:14:07;;;;;;;;;;;;;;;12.48;93.94;101690.00;7346961;19;19923;-68
2024/01/30 04:16:34;;;;;;;;;;;;;;;12.47;94.27;101690.13;7347533;19;19923;-67
2024/01/30 04:19:01;;;;;;;;;;;;;;;12.42;94.30;101685.28;7336060;19;19925;-67
2024/01/30 04:21:27;;;;;;;;;;;;;;;12.36;94.87;101686.69;7342440;19;19918;-66
2024/01/30 04:23:54;;;;;;;;;;;;;;;12.35;94.54;101687.66;7339718;19;19915;-67
2024/01/30 04:26:21;;;;;;;;;;;;;;;12.34;94.75;101680.72;7346657;19;20034;-67
2024/01/30 04:28:48;;;;;;;;;;;;;;;12.31;94.87;101678.38;7342075;19;20959;-66
2024/01/30 04:31:16;;;;;;;;;;;;;;;12.31;95.30;101683.66;7343301;19;19991;-66
2024/01/30 04:33:45;;;;;;;;;;;;;;;12.25;95.60;101689.50;7345166;19;19926;-66
2024/01/30 04:36:13;;;;;;;;;;;;;;;12.29;96.50;101690.88;7335754;19;20632;-67
2024/01/30 04:38:39;;;;;;;;;;;;;;;12.33;96.64;101686.16;7342251;19;20494;-67
2024/01/30 04:41:06;;;;;;;;;;;;;;;12.34;96.36;101696.56;7335938;19;19949;-66
2024/01/30 04:43:33;;;;;;;;;;;;;;;12.32;95.85;101693.25;7342682;19;19914;-67
2024/01/30 04:46:00;;;;;;;;;;;;;;;12.26;96.33;101696.44;7349777;19;20684;-67
2024/01/30 04:48:27;;;;;;;;;;;;;;;12.28;96.85;101697.16;7350461;19;20329;-67
2024/01/30 04:50:55;;;;;;;;;;;;;;;12.25;97.24;101699.22;7355343;19;19919;-67
2024/01/30 04:53:22;;;;;;;;;;;;;;;12.30;97.83;101699.63;7355900;19;20474;-67
2024/01/30 04:55:49;;;;;;;;;;;;;;;12.27;97.92;101708.66;7349811;19;20531;-67
2024/01/30 04:58:16;;;;;;;;;;;;;;;12.27;97.82;101698.13;7348353;19;19918;-68
2024/01/30 05:00:43;;;;;;;;;;;;;;;12.24;97.74;101692.31;7357500;19;20365;-66
2024/01/30 05:03:10;;;;;;;;;;;;;;;12.26;98.53;101708.81;7351370;19;19932;-68
2024/01/30 05:05:37;;;;;;;;;;;;;;;12.30;98.82;101712.81;7351789;19;19933;-66
2024/01/30 05:08:04;;;;;;;;;;;;;;;12.32;98.60;101718.78;7350624;19;19918;-67
2024/01/30 05:10:31;;;;;;;;;;;;;;;12.29;98.34;101716.44;7343454;19;19923;-67
2024/01/30 05:12:58;;;;;;;;;;;;;;;12.24;98.15;101727.41;7353306;19;19927;-67
2024/01/30 05:15:24;;;;;;;;;;;;;;;12.24;98.30;101723.97;7350708;19;19926;-68
2024/01/30 05:17:51;;;;;;;;;;;;;;;12.23;98.01;101717.00;7350202;19;19922;-67
2024/01/30 05:20:20;;;;;;;;;;;;;;;12.24;97.71;101718.69;7347628;19;21765;-67
2024/01/30 05:22:46;;;;;;;;;;;;;;;12.22;97.29;101723.25;7350812;19;19923;-67
2024/01/30 05:25:13;;;;;;;;;;;;;;;12.24;96.45;101730.03;7349470;19;20047;-67
2024/01/30 05:27:40;;;;;;;;;;;;;;;12.26;95.77;101741.31;7352743;19;21416;-67
2024/01/30 05:30:07;;;;;;;;;;;;;;;12.25;95.04;101749.34;7346968;19;19915;-66
2024/01/30 05:32:34;;;;;;;;;;;;;;;12.19;92.88;101745.47;7356160;19;19927;-66
2024/01/30 05:35:01;;;;;;;;;;;;;;;12.18;92.00;101754.38;7343233;19;21509;-68
2024/01/30 05:37:28;;;;;;;;;;;;;;;12.14;90.90;101774.06;7347894;19;19964;-68
2024/01/30 05:39:55;;;;;;;;;;;;;;;12.14;90.81;101784.63;7348425;19;20183;-67
2024/01/30 05:42:23;;;;;;;;;;;;;;;12.10;89.81;101787.69;7350318;19;20738;-66
2024/01/30 05:44:49;;;;;;;;;;;;;;;12.05;89.30;101787.25;7346922;19;20002;-67
2024/01/30 05:47:16;;;;;;;;;;;;;;;12.01;89.05;101792.00;7353591;19;19918;-66
2024/01/30 05:49:43;;;;;;;;;;;;;;;11.98;89.13;101794.91;7353162;19;19919;-67
2024/01/30 05:52:10;;;;;;;;;;;;;;;11.96;89.37;101802.13;7352717;19;19941;-67
2024/01/30 05:54:39;;;;;;;;;;;;;;;11.89;89.06;101812.38;7353984;19;20407;-67
2024/01/30 05:57:09;;;;;;;;;;;;;;;11.85;89.64;101818.91;7346659;19;20344;-66
2024/01/30 05:59:36;;;;;;;;;;;;;;;11.85;89.73;101825.97;7349332;19;19918;-67
2024/01/30 06:02:07;;;;;;;;;;;;;;;11.75;89.91;101830.41;7351188;19;20291;-67
2024/01/30 06:04:34;;;;;;;;;;;;;;;11.76;90.11;101826.81;7349790;19;19919;-67
2024/01/30 06:07:01;;;;;;;;;;;;;;;11.73;90.36;101838.47;7353750;19;20402;-67
2024/01/30 06:09:29;;;;;;;;;;;;;;;11.70;90.15;101833.41;7344147;19;19919;-67
2024/01/30 06:11:56;;;;;;;;;;;;;;;11.66;91.27;101839.09;7336707;19;19915;-67
2024/01/30 06:14:22;;;;;;;;;;;;;;;11.61;92.33;101841.31;7348803;19;19942;-66
2024/01/30 06:16:51;;;;;;;;;;;;;;;11.64;93.01;101857.66;7355466;19;19932;-67
2024/01/30 06:19:17;;;;;;;;;;;;;;;11.58;93.41;101852.94;7348773;19;19925;-67
2024/01/30 06:21:45;;;;;;;;;;;;;;;11.53;93.50;101858.59;7340274;19;19930;-67
2024/01/30 06:24:12;;;;;;;;;;;;;;;11.50;94.54;101853.63;7340308;19;19983;-66
2024/01/30 06:26:39;;;;;;;;;;;;;;;11.51;95.55;101860.56;7350567;19;20005;-66
2024/01/30 06:29:07;;;;;;;;;;;;;;;11.47;96.05;101861.81;7352999;19;20049;-66
2024/01/30 06:31:39;;;;;;;;;;;;;;;11.42;95.59;101858.72;7353752;19;19923;-66
2024/01/30 06:34:06;;;;;;;;;;;;;;;11.42;95.52;101864.00;7349096;19;20483;-66
2024/01/30 06:36:34;;;;;;;;;;;;;;;11.44;95.69;101869.94;7349266;19;19922;-67
2024/01/30 06:39:02;;;;;;;;;;;;;;;11.42;94.50;101879.81;7350246;19;19926;-67
2024/01/30 06:41:29;;;;;;;;;;;;;;;11.40;94.38;101886.16;7345799;19;19914;-68
2024/01/30 06:43:56;;;;;;;;;;;;;;;11.38;93.79;101903.91;7347517;19;19923;-67
2024/01/30 06:46:23;;;;;;;;;;;;;;;11.35;93.42;101898.91;7349482;19;19915;-67
2024/01/30 06:48:50;;;;;;;;;;;;;;;11.32;93.05;101907.91;7348995;19;19922;-66
2024/01/30 06:51:17;;;;;;;;;;;;;;;11.33;93.19;101904.28;7347892;19;19935;-67
2024/01/30 06:53:44;;;;;;;;;;;;;;;11.40;93.86;101912.50;7349706;19;19929;-65
2024/01/30 06:56:11;;;;;;;;;;;;;;;11.34;91.85;101921.78;7350550;19;19922;-65
2024/01/30 06:58:37;;;;;;;;;;;;;;;11.35;91.55;101918.19;7331376;19;19919;-67
2024/01/30 07:01:04;;;;;;;;;;;;;;;11.38;91.86;101919.69;7352147;19;19922;-67
2024/01/30 07:03:31;;;;;;;;;;;;;;;11.33;90.98;101925.38;7346621;19;19919;-66
2024/01/30 07:05:58;;;;;;;;;;;;;;;11.38;90.97;101927.59;7347461;19;19919;-67
2024/01/30 07:08:25;;;;;;;;;;;;;;;11.37;90.49;101939.97;7349061;19;19919;-68
2024/01/30 07:10:55;;;;;;;;;;;;;;;11.36;90.13;101943.56;7338484;19;19918;-68
2024/01/30 07:13:28;;;;;;;;;;;;;;;11.36;89.35;101948.84;7348437;19;19915;-67
2024/01/30 07:15:55;;;;;;;;;;;;;;;11.35;89.35;101947.16;7351516;19;19926;-67
2024/01/30 07:18:22;;;;;;;;;;;;;;;11.38;89.47;101951.31;7346657;19;19927;-67
2024/01/30 07:20:49;;;;;;;;;;;;;;;11.37;89.60;101950.53;7350815;19;20524;-68
2024/01/30 07:23:17;;;;;;;;;;;;;;;11.38;89.25;101959.22;7348193;19;20573;-68
2024/01/30 07:25:45;;;;;;;;;;;;;;;11.36;87.67;101959.38;7346964;19;19938;-66
2024/01/30 07:28:16;;;;;;;;;;;;;;;11.34;87.91;101973.63;7343891;19;20826;-67
2024/01/30 07:30:43;;;;;;;;;;;;;;;11.34;88.09;101977.09;7342996;19;20921;-67
2024/01/30 07:33:10;;;;;;;;;;;;;;;11.37;88.57;101987.41;7350194;19;19930;-67
2024/01/30 07:35:37;;;;;;;;;;;;;;;11.41;89.44;101993.25;7345766;19;19918;-66
2024/01/30 07:38:05;;;;;;;;;;;;;;;11.45;88.81;101997.28;7344101;19;20256;-67
2024/01/30 07:40:33;;;;;;;;;;;;;;;11.44;87.52;102000.88;7345223;19;19933;-66
2024/01/30 07:43:00;;;;;;;;;;;;;;;11.45;87.28;102007.81;7348299;19;19939;-67
2024/01/30 07:45:32;;;;;;;;;;;;;;;11.43;87.10;102015.00;7352264;19;21010;-67
2024/01/30 07:48:02;;;;;;;;;;;;;;;11.47;87.25;102013.81;7351239;19;20005;-68
2024/01/30 07:50:28;;;;;;;;;;;;;;;11.42;86.19;102010.72;7346744;19;20312;-68
2024/01/30 07:52:56;;;;;;;;;;;;;;;11.38;86.44;102007.50;7342039;19;19925;-65
2024/01/30 07:55:31;;;;;;;;;;;;;;;11.36;86.69;102021.78;7341334;19;20301;-67
2024/01/30 07:58:01;;;;;;;;;;;;;;;11.38;87.01;102028.56;7346285;19;19918;-67
2024/01/30 08:00:29;;;;;;;;;;;;;;;11.54;92.90;102028.97;7341412;19;20248;-67
2024/01/30 08:02:56;;;;;;;;;;;;;;;11.69;94.43;102042.66;7342640;19;20578;-67
2024/01/30 08:05:23;;;;;;;;;;;;;;;11.71;89.35;102050.44;7342798;19;20454;-67
2024/01/30 08:07:50;;;;;;;;;;;;;;;11.70;86.89;102059.31;7347663;19;20344;-68
2024/01/30 08:10:20;;;;;;;;;;;;;;;11.63;84.39;102063.44;7339431;19;19914;-68
2024/01/30 08:13:02;;;;;;;;;;;;;;;;;;;;;
2024/01/30 08:15:30;;;;;;;;;;;;;;;11.52;84.01;102086.28;7339123;19;19953;-67
2024/01/30 08:17:58;;;;;;;;;;;;;;;11.47;83.69;102085.81;7346076;19;19925;-68
2024/01/30 08:20:27;;;;;;;;;;;;;;;11.50;84.40;102092.63;7336901;19;20663;-68
2024/01/30 08:22:54;;;;;;;;;;;;;;;11.51;84.35;102100.41;7339130;19;19945;-67
2024/01/30 08:25:21;;;;;;;;;;;;;;;11.48;84.04;102103.28;7338438;19;20003;-67
2024/01/30 08:27:48;;;;;;;;;;;;;;;11.48;84.03;102105.91;7341043;19;19941;-70
2024/01/30 08:30:15;;;;;;;;;;;;;;;11.47;83.56;102106.91;7347249;19;19974;-67
2024/01/30 08:32:42;;;;;;;;;;;;;;;11.47;82.73;102106.06;7346036;19;19926;-66
2024/01/30 08:35:09;;;;;;;;;;;;;;;11.43;82.74;102113.38;7343071;19;20581;-68
2024/01/30 08:37:36;;;;;;;;;;;;;;;11.44;82.90;102122.94;7346652;19;19918;-67
2024/01/30 08:40:04;;;;;;;;;;;;;;;11.45;82.82;102124.63;7339443;19;20273;-68
2024/01/30 08:42:31;;;;;;;;;;;;;;;11.42;82.53;102130.16;7345538;19;19930;-67
2024/01/30 08:45:06;;;;;;;;;;;;;;;11.45;83.29;102131.69;7341541;19;19927;-66
2024/01/30 08:47:54;;;;;;;;;;;;;;;11.42;82.64;102138.06;7342720;19;19947;-67
2024/01/30 08:50:25;;;;;;;;;;;;;;;11.44;82.78;102137.91;7344147;19;20292;-69
2024/01/30 08:52:53;;;;;;;;;;;;;;;11.44;83.60;102146.66;7340093;19;19990;-66
2024/01/30 08:55:22;;;;;;;;;;;;;;;11.46;82.54;102142.13;7340679;19;19919;-67
2024/01/30 08:58:05;;;;;;;;;;;;;;;11.45;82.82;102158.88;7342746;19;20423;-67
2024/01/30 09:00:41;;;;;;;;;;;;;;;11.38;82.30;102160.34;7345149;19;19919;-67
2024/01/30 09:03:19;;;;;;;;;;;;;;;11.43;83.84;102166.06;7342568;19;20298;-66
2024/01/30 09:05:53;;;;;;;;;;;;;;;11.44;82.69;102170.38;7337976;19;20696;-67
2024/01/30 09:08:32;;;;;;;;;;;;;;;11.40;82.15;102176.03;7335298;19;19930;-67
2024/01/30 09:11:10;;;;;;;;;;;;;;;11.38;82.18;102186.69;7341040;19;19907;-68
2024/01/30 09:13:49;;;;;;;;;;;;;;;11.41;82.82;102183.81;7339342;19;23399;-68
2024/01/30 09:16:19;;;;;;;;;;;;;;;11.45;81.82;102187.03;7337444;19;19954;-67
2024/01/30 09:18:46;;;;;;;;;;;;;;;11.46;81.78;102194.84;7342703;19;19911;-67
2024/01/30 09:21:13;;;;;;;;;;;;;;;11.43;81.52;102195.06;7342214;19;19915;-69
2024/01/30 09:23:39;;;;;;;;;;;;;;;11.45;82.22;102201.06;7343820;19;19930;-66
2024/01/30 09:26:06;;;;;;;;;;;;;;;11.37;80.58;102205.28;7338445;19;19926;-68
2024/01/30 09:28:33;;;;;;;;;;;;;;;11.38;81.29;102205.13;7333695;19;19938;-68
2024/01/30 09:31:00;;;;;;;;;;;;;;;11.39;81.14;102205.97;7347644;19;20541;-67
2024/01/30 09:33:27;;;;;;;;;;;;;;;11.40;81.70;102216.41;7350859;19;19939;-66
2024/01/30 09:35:54;;;;;;;;;;;;;;;11.39;81.27;102227.06;7352865;19;19919;-67
2024/01/30 09:38:21;;;;;;;;;;;;;;;11.42;81.66;102222.41;7347172;19;19998;-66
2024/01/30 09:40:53;;;;;;;;;;;;;;;11.46;81.10;102223.81;7344672;19;19930;-67
2024/01/30 09:43:22;;;;;;;;;;;;;;;11.45;81.35;102234.47;7342265;19;20685;-68
2024/01/30 09:45:53;;;;;;;;;;;;;;;11.45;81.09;102231.84;7345068;19;19930;-67
2024/01/30 09:48:20;;;;;;;;;;;;;;;11.47;81.49;102238.69;7344857;19;19929;-68
2024/01/30 09:50:47;;;;;;;;;;;;;;;11.50;81.09;102246.34;7339855;19;19929;-67
2024/01/30 09:53:14;;;;;;;;;;;;;;;11.49;80.03;102249.09;7348639;19;19923;-68
2024/01/30 09:55:42;;;;;;;;;;;;;;;11.44;80.10;102252.09;7341253;19;21916;-67
2024/01/30 09:58:09;;;;;;;;;;;;;;;11.50;80.54;102256.03;7347248;19;19917;-66
2024/01/30 10:00:36;;;;;;;;;;;;;;;11.48;80.17;102264.06;7335782;19;19906;-68
2024/01/30 10:03:03;;;;;;;;;;;;;;;11.52;79.45;102267.31;7346780;19;19941;-68
2024/01/30 10:05:33;;;;;;;;;;;;;;;11.54;79.11;102260.94;7346762;19;21054;-67
2024/01/30 10:08:00;;;;;;;;;;;;;;;11.59;79.46;102265.81;7336266;19;19951;-67
2024/01/30 10:10:27;;;;;;;;;;;;;;;11.62;79.19;102270.88;7344930;19;20265;-66
2024/01/30 10:12:54;;;;;;;;;;;;;;;11.68;79.01;102278.28;7344477;19;20363;-65
2024/01/30 10:15:21;;;;;;;;;;;;;;;11.68;78.71;102280.09;7338668;19;19930;-66
2024/01/30 10:17:49;;;;;;;;;;;;;;;11.75;78.26;102283.91;7349196;19;19974;-67
2024/01/30 10:20:17;;;;;;;;;;;;;;;11.78;77.63;102279.25;7351658;19;20388;-66
2024/01/30 10:22:45;;;;;;;;;;;;;;;11.82;77.95;102293.03;7348598;19;19923;-67
2024/01/30 10:25:12;;;;;;;;;;;;;;;11.83;76.76;102298.19;7343841;19;20913;-66
2024/01/30 10:27:40;;;;;;;;;;;;;;;11.85;77.01;102300.66;7350929;19;19922;-68
2024/01/30 10:30:07;;;;;;;;;;;;;;;11.84;77.16;102312.19;7343407;19;20470;-67
2024/01/30 10:32:34;;;;;;;;;;;;;;;11.82;76.74;102314.13;7343858;19;19923;-67
2024/01/30 10:35:04;;;;;;;;;;;;;;;11.81;76.34;102325.63;7343069;19;20014;-68
2024/01/30 10:37:32;;;;;;;;;;;;;;;11.75;75.93;102323.47;7348500;19;19986;-66
2024/01/30 10:40:03;;;;;;;;;;;;;;;11.80;76.83;102326.56;7346660;19;19929;-67
2024/01/30 10:42:31;;;;;;;;;;;;;;;11.78;76.19;102332.00;7343787;19;20491;-67
2024/01/30 10:45:08;;;;;;;;;;;;;;;11.73;76.02;102334.16;7346783;19;19939;-67
2024/01/30 10:47:38;;;;;;;;;;;;;;;11.69;76.14;102345.03;7342846;19;20234;-67
2024/01/30 10:50:07;;;;;;;;;;;;;;;11.70;76.13;102346.69;7345922;19;20379;-68
2024/01/30 10:52:34;;;;;;;;;;;;;;;11.69;75.46;102356.41;7351808;19;19919;-66
2024/01/30 10:55:04;;;;;;;;;;;;;;;11.65;74.84;102357.63;7347039;19;20339;-67
2024/01/30 10:57:33;;;;;;;;;;;;;;;11.55;74.72;102360.16;7347030;19;20510;-68
2024/01/30 11:00:01;;;;;;;;;;;;;;;11.50;75.00;102361.47;7349388;19;19915;-68
2024/01/30 11:02:28;;;;;;;;;;;;;;;11.52;75.67;102368.31;7347108;19;19922;-67
2024/01/30 11:05:02;;;;;;;;;;;;;;;11.57;74.66;102375.84;7347302;19;19922;-68
2024/01/30 11:07:30;;;;;;;;;;;;;;;11.57;74.56;102378.50;7344141;19;19922;-68
2024/01/30 11:10:01;;;;;;;;;;;;;;;11.58;74.45;102388.88;7334554;19;20403;-69
2024/01/30 11:12:29;;;;;;;;;;;;;;;11.56;74.33;102390.81;7335501;19;20670;-66
2024/01/30 11:15:15;;;;;;;;;;;;;;;11.55;73.84;102394.41;7333942;19;19933;-67
2024/01/30 11:17:48;;;;;;;;;;;;;;;11.56;73.95;102385.56;7349119;19;20684;-68
2024/01/30 11:20:16;;;;;;;;;;;;;;;11.55;73.73;102397.06;7344566;19;19918;-67
2024/01/30 11:22:44;;;;;;;;;;;;;;;11.52;73.65;102384.13;7343017;19;20332;-67
2024/01/30 11:25:15;;;;;;;;;;;;;;;11.43;73.34;102381.34;7351061;19;19941;-67
2024/01/30 11:27:43;;;;;;;;;;;;;;;11.49;73.31;102378.22;7340338;19;19926;-68
2024/01/30 11:30:10;;;;;;;;;;;;;;;11.50;73.55;102393.94;7342727;19;19926;-67
2024/01/30 11:32:37;;;;;;;;;;;;;;;11.49;72.98;102396.69;7345350;19;19930;-68
2024/01/30 11:35:06;;;;;;;;;;;;;;;11.48;73.08;102395.84;7350727;19;19927;-67
2024/01/30 11:37:36;;;;;;;;;;;;;;;11.50;73.52;102412.38;7350689;19;20839;-68
2024/01/30 11:40:04;;;;;;;;;;;;;;;11.54;73.30;102416.47;7331285;19;20327;-67
2024/01/30 11:42:31;;;;;;;;;;;;;;;11.55;73.00;102412.88;7346174;19;19915;-67
2024/01/30 11:45:00;;;;;;;;;;;;;;;11.55;72.69;102426.06;7344167;19;19915;-67
2024/01/30 11:47:27;;;;;;;;;;;;;;;11.52;72.93;102418.41;7345038;19;20501;-68
2024/01/30 11:49:54;;;;;;;;;;;;;;;11.55;72.71;102418.13;7345173;19;19925;-67
2024/01/30 11:52:25;;;;;;;;;;;;;;;11.55;72.23;102426.06;7348625;19;19919;-68
2024/01/30 11:54:53;;;;;;;;;;;;;;;11.51;72.04;102426.41;7346730;19;20458;-67
2024/01/30 11:57:19;;;;;;;;;;;;;;;11.45;72.45;102433.00;7343495;19;19933;-66
2024/01/30 11:59:46;;;;;;;;;;;;;;;11.43;72.79;102441.97;7345168;19;20970;-66
2024/01/30 12:02:17;;;;;;;;;;;;;;;11.41;72.32;102433.34;7346476;19;19927;-68
2024/01/30 12:04:45;;;;;;;;;;;;;;;11.46;71.83;102439.09;7344224;19;19923;-66
2024/01/30 12:07:15;;;;;;;;;;;;;;;11.43;72.32;102439.31;7332337;19;20728;-67
2024/01/30 12:09:51;;;;;;;;;;;;;;;11.42;72.63;102443.78;7338049;19;20333;-69
2024/01/30 12:12:18;;;;;;;;;;;;;;;11.44;72.36;102444.50;7354744;19;19926;-67
2024/01/30 12:14:45;;;;;;;;;;;;;;;11.43;72.43;102439.31;7352907;19;19923;-69
2024/01/30 12:17:22;;;;;;;;;;;;;;;11.45;71.95;102446.16;7342621;19;19937;-67
2024/01/30 12:19:49;;;;;;;;;;;;;;;11.49;71.98;102436.22;7342386;19;19930;-66
2024/01/30 12:22:16;;;;;;;;;;;;;;;11.53;72.32;102445.56;7354022;19;20027;-68
2024/01/30 12:24:47;;;;;;;;;;;;;;;11.55;71.65;102441.03;7351502;19;19919;-67
2024/01/30 12:27:15;;;;;;;;;;;;;;;11.60;71.61;102446.78;7354455;19;20015;-67
2024/01/30 12:29:42;;;;;;;;;;;;;;;11.61;71.33;102444.97;7352870;19;19926;-67
2024/01/30 12:32:14;;;;;;;;;;;;;;;11.67;71.11;102444.50;7353956;19;19941;-67
2024/01/30 12:34:45;;;;;;;;;;;;;;;11.72;70.12;102450.25;7340706;19;19986;-67
2024/01/30 12:37:26;;;;;;;;;;;;;;;11.79;70.87;102462.88;7342647;19;19918;-68
2024/01/30 12:39:54;;;;;;;;;;;;;;;11.87;70.73;102468.41;7343883;19;19911;-68
2024/01/30 12:42:23;;;;;;;;;;;;;;;11.95;70.45;102465.13;7343626;19;19948;-67